sensor_id;sensor_type;location;lat;lon;timestamp;P1;durP1;ratioP1;P2;durP2;ratioP2
23140;SDS011;11739;54.750;9.124;2022-07-06T00:01:43;2.55;;;0.98;;
23140;SDS011;11739;54.750;9.124;2022-07-06T00:04:10;1.92;;;0.88;;
23140;SDS011;11739;54.750;9.124;2022-07-06T00:06:36;2.88;;;1.08;;
23140;SDS011;11739;54.750;9.124;2022-07-06T00:09:03;4.13;;;1.27;;
23140;SDS011;11739;54.750;9.124;2022-07-06T00:11:30;2.10;;;1.20;;
23140;SDS011;11739;54.750;9.124;2022-07-06T00:13:57;2.17;;;1.17;;
23140;SDS011;11739;54.750;9.124;2022-07-06T00:16:24;2.78;;;1.30;;
23140;SDS011;11739;54.750;9.124;2022-07-06T00:18:51;2.00;;;1.15;;
23140;SDS011;11739;54.750;9.124;2022-07-06T00:21:17;3.35;;;1.20;;
23140;SDS011;11739;54.750;9.124;2022-07-06T00:23:44;3.35;;;1.10;;
23140;SDS011;11739;54.750;9.124;2022-07-06T00:26:10;3.13;;;1.20;;
23140;SDS011;11739;54.750;9.124;2022-07-06T00:28:37;2.40;;;1.05;;
23140;SDS011;11739;54.750;9.124;2022-07-06T00:31:03;2.22;;;1.30;;
23140;SDS011;11739;54.750;9.124;2022-07-06T00:33:31;2.08;;;1.15;;
23140;SDS011;11739;54.750;9.124;2022-07-06T00:35:58;3.13;;;1.13;;
23140;SDS011;11739;54.750;9.124;2022-07-06T00:38:24;2.75;;;1.20;;
23140;SDS011;11739;54.750;9.124;2022-07-06T00:40:51;3.00;;;1.35;;
23140;SDS011;11739;54.750;9.124;2022-07-06T00:43:17;1.70;;;1.10;;
23140;SDS011;11739;54.750;9.124;2022-07-06T00:45:44;3.30;;;1.10;;
23140;SDS011;11739;54.750;9.124;2022-07-06T00:48:11;2.75;;;1.40;;
23140;SDS011;11739;54.750;9.124;2022-07-06T00:50:38;1.40;;;1.30;;
23140;SDS011;11739;54.750;9.124;2022-07-06T00:53:05;4.32;;;1.60;;
23140;SDS011;11739;54.750;9.124;2022-07-06T00:55:36;2.17;;;1.42;;
23140;SDS011;11739;54.750;9.124;2022-07-06T00:58:07;2.20;;;1.40;;
23140;SDS011;11739;54.750;9.124;2022-07-06T01:00:35;3.20;;;1.50;;
23140;SDS011;11739;54.750;9.124;2022-07-06T01:03:02;2.58;;;1.58;;
23140;SDS011;11739;54.750;9.124;2022-07-06T01:05:28;3.10;;;1.35;;
23140;SDS011;11739;54.750;9.124;2022-07-06T01:07:55;2.45;;;1.48;;
23140;SDS011;11739;54.750;9.124;2022-07-06T01:10:22;1.98;;;1.15;;
23140;SDS011;11739;54.750;9.124;2022-07-06T01:12:49;4.72;;;1.50;;
23140;SDS011;11739;54.750;9.124;2022-07-06T01:15:17;3.85;;;1.13;;
23140;SDS011;11739;54.750;9.124;2022-07-06T01:17:44;3.15;;;1.48;;
23140;SDS011;11739;54.750;9.124;2022-07-06T01:22:39;3.85;;;1.70;;
23140;SDS011;11739;54.750;9.124;2022-07-06T01:25:06;5.00;;;1.70;;
23140;SDS011;11739;54.750;9.124;2022-07-06T01:27:36;4.03;;;1.67;;
23140;SDS011;11739;54.750;9.124;2022-07-06T01:30:05;3.08;;;1.40;;
23140;SDS011;11739;54.750;9.124;2022-07-06T01:32:33;1.85;;;1.10;;
23140;SDS011;11739;54.750;9.124;2022-07-06T01:35:00;2.13;;;1.20;;
23140;SDS011;11739;54.750;9.124;2022-07-06T01:37:27;2.58;;;1.23;;
23140;SDS011;11739;54.750;9.124;2022-07-06T01:39:53;2.45;;;1.30;;
23140;SDS011;11739;54.750;9.124;2022-07-06T01:42:20;3.15;;;1.40;;
23140;SDS011;11739;54.750;9.124;2022-07-06T01:44:46;2.63;;;1.60;;
23140;SDS011;11739;54.750;9.124;2022-07-06T01:47:13;2.40;;;1.33;;
23140;SDS011;11739;54.750;9.124;2022-07-06T01:49:39;1.33;;;1.23;;
23140;SDS011;11739;54.750;9.124;2022-07-06T01:52:06;1.50;;;1.30;;
23140;SDS011;11739;54.750;9.124;2022-07-06T01:54:32;1.67;;;1.35;;
23140;SDS011;11739;54.750;9.124;2022-07-06T01:56:59;4.93;;;1.60;;
23140;SDS011;11739;54.750;9.124;2022-07-06T01:59:26;2.03;;;1.30;;
23140;SDS011;11739;54.750;9.124;2022-07-06T02:01:52;3.95;;;1.35;;
23140;SDS011;11739;54.750;9.124;2022-07-06T02:04:19;2.60;;;1.70;;
23140;SDS011;11739;54.750;9.124;2022-07-06T02:06:45;3.70;;;1.88;;
23140;SDS011;11739;54.750;9.124;2022-07-06T02:09:12;2.58;;;1.58;;
23140;SDS011;11739;54.750;9.124;2022-07-06T02:11:39;2.38;;;1.42;;
23140;SDS011;11739;54.750;9.124;2022-07-06T02:14:05;1.98;;;1.48;;
23140;SDS011;11739;54.750;9.124;2022-07-06T02:16:32;2.47;;;1.55;;
23140;SDS011;11739;54.750;9.124;2022-07-06T02:18:58;2.20;;;1.90;;
23140;SDS011;11739;54.750;9.124;2022-07-06T02:21:25;4.22;;;1.83;;
23140;SDS011;11739;54.750;9.124;2022-07-06T02:23:51;3.45;;;1.80;;
23140;SDS011;11739;54.750;9.124;2022-07-06T02:26:18;2.60;;;1.50;;
23140;SDS011;11739;54.750;9.124;2022-07-06T02:28:44;2.83;;;1.70;;
23140;SDS011;11739;54.750;9.124;2022-07-06T02:31:13;3.10;;;1.65;;
23140;SDS011;11739;54.750;9.124;2022-07-06T02:33:40;1.92;;;1.50;;
23140;SDS011;11739;54.750;9.124;2022-07-06T02:36:07;2.20;;;1.63;;
23140;SDS011;11739;54.750;9.124;2022-07-06T02:38:33;3.20;;;1.55;;
23140;SDS011;11739;54.750;9.124;2022-07-06T02:41:00;3.80;;;1.58;;
23140;SDS011;11739;54.750;9.124;2022-07-06T02:43:26;4.22;;;1.75;;
23140;SDS011;11739;54.750;9.124;2022-07-06T02:45:53;2.88;;;1.63;;
23140;SDS011;11739;54.750;9.124;2022-07-06T02:48:20;3.08;;;1.73;;
23140;SDS011;11739;54.750;9.124;2022-07-06T02:50:47;2.20;;;1.40;;
23140;SDS011;11739;54.750;9.124;2022-07-06T02:53:14;2.35;;;1.30;;
23140;SDS011;11739;54.750;9.124;2022-07-06T02:55:40;3.58;;;1.50;;
23140;SDS011;11739;54.750;9.124;2022-07-06T02:58:07;4.07;;;1.48;;
23140;SDS011;11739;54.750;9.124;2022-07-06T03:00:33;3.03;;;1.52;;
23140;SDS011;11739;54.750;9.124;2022-07-06T03:03:00;3.35;;;1.25;;
23140;SDS011;11739;54.750;9.124;2022-07-06T03:05:27;2.40;;;1.42;;
23140;SDS011;11739;54.750;9.124;2022-07-06T03:07:53;1.90;;;1.10;;
23140;SDS011;11739;54.750;9.124;2022-07-06T03:10:20;2.58;;;1.27;;
23140;SDS011;11739;54.750;9.124;2022-07-06T03:12:46;2.33;;;1.35;;
23140;SDS011;11739;54.750;9.124;2022-07-06T03:15:13;2.33;;;1.15;;
23140;SDS011;11739;54.750;9.124;2022-07-06T03:17:39;2.17;;;1.33;;
23140;SDS011;11739;54.750;9.124;2022-07-06T03:20:06;3.30;;;1.50;;
23140;SDS011;11739;54.750;9.124;2022-07-06T03:22:33;2.08;;;1.17;;
23140;SDS011;11739;54.750;9.124;2022-07-06T03:24:59;1.85;;;1.05;;
23140;SDS011;11739;54.750;9.124;2022-07-06T03:27:26;3.40;;;1.38;;
23140;SDS011;11739;54.750;9.124;2022-07-06T03:29:52;5.20;;;1.48;;
23140;SDS011;11739;54.750;9.124;2022-07-06T03:32:19;3.45;;;1.35;;
23140;SDS011;11739;54.750;9.124;2022-07-06T03:34:45;2.15;;;1.10;;
23140;SDS011;11739;54.750;9.124;2022-07-06T03:37:12;2.75;;;1.35;;
23140;SDS011;11739;54.750;9.124;2022-07-06T03:39:39;4.55;;;0.93;;
23140;SDS011;11739;54.750;9.124;2022-07-06T03:42:05;6.07;;;1.27;;
23140;SDS011;11739;54.750;9.124;2022-07-06T03:44:32;3.25;;;1.00;;
23140;SDS011;11739;54.750;9.124;2022-07-06T03:46:58;1.02;;;0.90;;
23140;SDS011;11739;54.750;9.124;2022-07-06T03:49:25;2.53;;;0.93;;
23140;SDS011;11739;54.750;9.124;2022-07-06T03:51:53;3.78;;;1.05;;
23140;SDS011;11739;54.750;9.124;2022-07-06T03:54:20;1.92;;;1.13;;
23140;SDS011;11739;54.750;9.124;2022-07-06T03:56:47;3.00;;;1.40;;
23140;SDS011;11739;54.750;9.124;2022-07-06T03:59:13;1.58;;;1.20;;
23140;SDS011;11739;54.750;9.124;2022-07-06T04:01:40;3.40;;;1.65;;
23140;SDS011;11739;54.750;9.124;2022-07-06T04:04:07;5.40;;;1.52;;
23140;SDS011;11739;54.750;9.124;2022-07-06T04:06:33;4.82;;;1.30;;
23140;SDS011;11739;54.750;9.124;2022-07-06T04:09:03;1.67;;;1.08;;
23140;SDS011;11739;54.750;9.124;2022-07-06T04:11:29;4.82;;;1.33;;
23140;SDS011;11739;54.750;9.124;2022-07-06T04:13:56;3.65;;;1.50;;
23140;SDS011;11739;54.750;9.124;2022-07-06T04:16:22;4.05;;;1.40;;
23140;SDS011;11739;54.750;9.124;2022-07-06T04:18:49;5.55;;;1.30;;
23140;SDS011;11739;54.750;9.124;2022-07-06T04:21:15;3.17;;;1.33;;
23140;SDS011;11739;54.750;9.124;2022-07-06T04:23:42;4.90;;;1.30;;
23140;SDS011;11739;54.750;9.124;2022-07-06T04:26:08;4.68;;;1.50;;
23140;SDS011;11739;54.750;9.124;2022-07-06T04:28:35;4.15;;;1.40;;
23140;SDS011;11739;54.750;9.124;2022-07-06T04:31:01;5.57;;;1.17;;
23140;SDS011;11739;54.750;9.124;2022-07-06T04:33:28;3.05;;;1.40;;
23140;SDS011;11739;54.750;9.124;2022-07-06T04:35:55;5.78;;;1.50;;
23140;SDS011;11739;54.750;9.124;2022-07-06T04:38:21;4.30;;;1.50;;
23140;SDS011;11739;54.750;9.124;2022-07-06T04:40:48;6.03;;;1.60;;
23140;SDS011;11739;54.750;9.124;2022-07-06T04:43:14;6.28;;;1.60;;
23140;SDS011;11739;54.750;9.124;2022-07-06T04:45:41;3.65;;;1.20;;
23140;SDS011;11739;54.750;9.124;2022-07-06T04:48:07;2.03;;;1.30;;
23140;SDS011;11739;54.750;9.124;2022-07-06T04:50:34;3.67;;;1.42;;
23140;SDS011;11739;54.750;9.124;2022-07-06T04:53:05;3.88;;;1.63;;
23140;SDS011;11739;54.750;9.124;2022-07-06T04:55:32;5.95;;;1.58;;
23140;SDS011;11739;54.750;9.124;2022-07-06T04:57:58;2.92;;;1.40;;
23140;SDS011;11739;54.750;9.124;2022-07-06T05:00:25;4.82;;;1.48;;
23140;SDS011;11739;54.750;9.124;2022-07-06T05:02:51;3.92;;;1.40;;
23140;SDS011;11739;54.750;9.124;2022-07-06T05:05:18;2.30;;;1.48;;
23140;SDS011;11739;54.750;9.124;2022-07-06T05:07:45;3.05;;;1.38;;
23140;SDS011;11739;54.750;9.124;2022-07-06T05:10:11;3.72;;;1.40;;
23140;SDS011;11739;54.750;9.124;2022-07-06T05:12:38;3.92;;;1.58;;
23140;SDS011;11739;54.750;9.124;2022-07-06T05:15:05;3.22;;;1.30;;
23140;SDS011;11739;54.750;9.124;2022-07-06T05:17:32;5.13;;;1.67;;
23140;SDS011;11739;54.750;9.124;2022-07-06T05:19:58;2.67;;;1.27;;
23140;SDS011;11739;54.750;9.124;2022-07-06T05:22:25;3.47;;;1.50;;
23140;SDS011;11739;54.750;9.124;2022-07-06T05:24:51;6.18;;;1.70;;
23140;SDS011;11739;54.750;9.124;2022-07-06T05:27:18;3.50;;;1.58;;
23140;SDS011;11739;54.750;9.124;2022-07-06T05:29:45;6.90;;;1.38;;
23140;SDS011;11739;54.750;9.124;2022-07-06T05:32:11;3.05;;;1.48;;
23140;SDS011;11739;54.750;9.124;2022-07-06T05:34:38;4.25;;;1.48;;
23140;SDS011;11739;54.750;9.124;2022-07-06T05:37:06;5.50;;;1.60;;
23140;SDS011;11739;54.750;9.124;2022-07-06T05:39:32;3.15;;;1.10;;
23140;SDS011;11739;54.750;9.124;2022-07-06T05:41:59;3.35;;;1.52;;
23140;SDS011;11739;54.750;9.124;2022-07-06T05:44:25;4.85;;;1.40;;
23140;SDS011;11739;54.750;9.124;2022-07-06T05:46:52;4.68;;;1.20;;
23140;SDS011;11739;54.750;9.124;2022-07-06T05:49:38;3.60;;;1.08;;
23140;SDS011;11739;54.750;9.124;2022-07-06T05:52:23;3.85;;;1.30;;
23140;SDS011;11739;54.750;9.124;2022-07-06T05:54:50;3.72;;;1.55;;
23140;SDS011;11739;54.750;9.124;2022-07-06T05:57:17;6.40;;;1.40;;
23140;SDS011;11739;54.750;9.124;2022-07-06T05:59:44;3.38;;;1.30;;
23140;SDS011;11739;54.750;9.124;2022-07-06T06:02:11;3.05;;;1.27;;
23140;SDS011;11739;54.750;9.124;2022-07-06T06:04:38;3.65;;;1.33;;
23140;SDS011;11739;54.750;9.124;2022-07-06T06:07:05;4.10;;;1.40;;
23140;SDS011;11739;54.750;9.124;2022-07-06T06:09:31;2.38;;;1.23;;
23140;SDS011;11739;54.750;9.124;2022-07-06T06:11:58;3.35;;;1.50;;
23140;SDS011;11739;54.750;9.124;2022-07-06T06:14:24;3.20;;;1.33;;
23140;SDS011;11739;54.750;9.124;2022-07-06T06:16:51;3.88;;;1.30;;
23140;SDS011;11739;54.750;9.124;2022-07-06T06:19:17;3.88;;;1.25;;
23140;SDS011;11739;54.750;9.124;2022-07-06T06:21:44;4.03;;;1.40;;
23140;SDS011;11739;54.750;9.124;2022-07-06T06:24:10;2.85;;;1.52;;
23140;SDS011;11739;54.750;9.124;2022-07-06T06:26:37;2.97;;;1.10;;
23140;SDS011;11739;54.750;9.124;2022-07-06T06:29:03;4.47;;;1.50;;
23140;SDS011;11739;54.750;9.124;2022-07-06T06:31:30;3.35;;;1.20;;
23140;SDS011;11739;54.750;9.124;2022-07-06T06:34:01;3.72;;;1.40;;
23140;SDS011;11739;54.750;9.124;2022-07-06T06:36:27;2.78;;;1.45;;
23140;SDS011;11739;54.750;9.124;2022-07-06T06:38:54;3.05;;;1.42;;
23140;SDS011;11739;54.750;9.124;2022-07-06T06:41:22;3.22;;;1.30;;
23140;SDS011;11739;54.750;9.124;2022-07-06T06:43:49;3.00;;;1.15;;
23140;SDS011;11739;54.750;9.124;2022-07-06T06:46:16;2.28;;;1.10;;
23140;SDS011;11739;54.750;9.124;2022-07-06T06:48:42;2.45;;;0.90;;
23140;SDS011;11739;54.750;9.124;2022-07-06T06:51:09;2.15;;;0.90;;
23140;SDS011;11739;54.750;9.124;2022-07-06T06:53:35;2.78;;;1.25;;
23140;SDS011;11739;54.750;9.124;2022-07-06T06:56:05;3.20;;;1.20;;
23140;SDS011;11739;54.750;9.124;2022-07-06T06:58:32;3.33;;;1.10;;
23140;SDS011;11739;54.750;9.124;2022-07-06T07:01:18;4.00;;;1.23;;
23140;SDS011;11739;54.750;9.124;2022-07-06T07:03:45;5.47;;;1.38;;
23140;SDS011;11739;54.750;9.124;2022-07-06T07:06:11;3.42;;;1.17;;
23140;SDS011;11739;54.750;9.124;2022-07-06T07:08:38;4.43;;;1.13;;
23140;SDS011;11739;54.750;9.124;2022-07-06T07:11:04;4.55;;;1.20;;
23140;SDS011;11739;54.750;9.124;2022-07-06T07:13:31;2.80;;;0.82;;
23140;SDS011;11739;54.750;9.124;2022-07-06T07:15:58;5.18;;;1.23;;
23140;SDS011;11739;54.750;9.124;2022-07-06T07:18:24;3.30;;;1.20;;
23140;SDS011;11739;54.750;9.124;2022-07-06T07:20:51;4.88;;;1.42;;
23140;SDS011;11739;54.750;9.124;2022-07-06T07:23:18;3.58;;;1.30;;
23140;SDS011;11739;54.750;9.124;2022-07-06T07:25:45;3.70;;;1.10;;
23140;SDS011;11739;54.750;9.124;2022-07-06T07:28:11;3.30;;;0.95;;
23140;SDS011;11739;54.750;9.124;2022-07-06T07:30:38;4.47;;;1.30;;
23140;SDS011;11739;54.750;9.124;2022-07-06T07:33:04;2.88;;;1.00;;
23140;SDS011;11739;54.750;9.124;2022-07-06T07:35:31;3.47;;;1.20;;
23140;SDS011;11739;54.750;9.124;2022-07-06T07:37:57;2.03;;;0.75;;
23140;SDS011;11739;54.750;9.124;2022-07-06T07:40:24;3.47;;;0.93;;
23140;SDS011;11739;54.750;9.124;2022-07-06T07:42:51;4.20;;;1.10;;
23140;SDS011;11739;54.750;9.124;2022-07-06T07:45:17;2.45;;;1.05;;
23140;SDS011;11739;54.750;9.124;2022-07-06T07:47:44;4.78;;;1.10;;
23140;SDS011;11739;54.750;9.124;2022-07-06T07:50:10;4.40;;;1.00;;
23140;SDS011;11739;54.750;9.124;2022-07-06T07:52:37;4.03;;;1.02;;
23140;SDS011;11739;54.750;9.124;2022-07-06T07:55:04;3.80;;;1.35;;
23140;SDS011;11739;54.750;9.124;2022-07-06T07:57:51;4.20;;;1.77;;
23140;SDS011;11739;54.750;9.124;2022-07-06T08:00:17;2.75;;;1.10;;
23140;SDS011;11739;54.750;9.124;2022-07-06T08:02:50;5.88;;;1.10;;
23140;SDS011;11739;54.750;9.124;2022-07-06T08:05:17;4.22;;;1.23;;
23140;SDS011;11739;54.750;9.124;2022-07-06T08:07:44;3.90;;;1.10;;
23140;SDS011;11739;54.750;9.124;2022-07-06T08:10:11;4.10;;;0.82;;
23140;SDS011;11739;54.750;9.124;2022-07-06T08:12:38;2.38;;;0.95;;
23140;SDS011;11739;54.750;9.124;2022-07-06T08:15:10;1.92;;;1.00;;
23140;SDS011;11739;54.750;9.124;2022-07-06T08:17:37;2.97;;;1.00;;
23140;SDS011;11739;54.750;9.124;2022-07-06T08:20:05;4.85;;;1.27;;
23140;SDS011;11739;54.750;9.124;2022-07-06T08:22:34;3.42;;;1.10;;
23140;SDS011;11739;54.750;9.124;2022-07-06T08:25:01;3.67;;;1.30;;
23140;SDS011;11739;54.750;9.124;2022-07-06T08:27:28;4.35;;;1.00;;
23140;SDS011;11739;54.750;9.124;2022-07-06T08:29:55;2.65;;;1.00;;
23140;SDS011;11739;54.750;9.124;2022-07-06T08:32:22;4.35;;;1.27;;
23140;SDS011;11739;54.750;9.124;2022-07-06T08:35:09;1.73;;;0.60;;
23140;SDS011;11739;54.750;9.124;2022-07-06T08:37:36;5.22;;;1.20;;
23140;SDS011;11739;54.750;9.124;2022-07-06T08:40:03;3.97;;;1.10;;
23140;SDS011;11739;54.750;9.124;2022-07-06T08:42:33;3.38;;;1.10;;
23140;SDS011;11739;54.750;9.124;2022-07-06T08:45:01;1.45;;;0.60;;
23140;SDS011;11739;54.750;9.124;2022-07-06T08:47:29;3.22;;;0.93;;
23140;SDS011;11739;54.750;9.124;2022-07-06T08:49:56;3.15;;;1.20;;
23140;SDS011;11739;54.750;9.124;2022-07-06T08:52:23;3.75;;;0.90;;
23140;SDS011;11739;54.750;9.124;2022-07-06T08:54:51;3.45;;;1.42;;
23140;SDS011;11739;54.750;9.124;2022-07-06T08:57:17;3.45;;;1.20;;
23140;SDS011;11739;54.750;9.124;2022-07-06T08:59:44;2.83;;;0.73;;
23140;SDS011;11739;54.750;9.124;2022-07-06T09:02:11;4.10;;;0.90;;
23140;SDS011;11739;54.750;9.124;2022-07-06T09:04:38;1.95;;;0.95;;
23140;SDS011;11739;54.750;9.124;2022-07-06T09:07:06;2.50;;;0.98;;
23140;SDS011;11739;54.750;9.124;2022-07-06T09:09:33;4.85;;;1.20;;
23140;SDS011;11739;54.750;9.124;2022-07-06T09:11:59;2.05;;;0.77;;
23140;SDS011;11739;54.750;9.124;2022-07-06T09:14:29;1.98;;;0.65;;
23140;SDS011;11739;54.750;9.124;2022-07-06T09:17:03;2.40;;;0.80;;
23140;SDS011;11739;54.750;9.124;2022-07-06T09:19:35;2.20;;;0.85;;
23140;SDS011;11739;54.750;9.124;2022-07-06T09:22:02;3.33;;;1.10;;
23140;SDS011;11739;54.750;9.124;2022-07-06T09:24:29;3.45;;;0.98;;
23140;SDS011;11739;54.750;9.124;2022-07-06T09:26:57;3.03;;;0.95;;
23140;SDS011;11739;54.750;9.124;2022-07-06T09:29:28;2.10;;;1.08;;
23140;SDS011;11739;54.750;9.124;2022-07-06T09:31:56;4.97;;;1.23;;
23140;SDS011;11739;54.750;9.124;2022-07-06T09:34:24;5.68;;;1.33;;
23140;SDS011;11739;54.750;9.124;2022-07-06T09:36:50;7.05;;;1.40;;
23140;SDS011;11739;54.750;9.124;2022-07-06T09:41:54;4.50;;;1.20;;
23140;SDS011;11739;54.750;9.124;2022-07-06T09:44:29;3.50;;;1.02;;
23140;SDS011;11739;54.750;9.124;2022-07-06T09:47:01;6.75;;;1.38;;
23140;SDS011;11739;54.750;9.124;2022-07-06T09:49:29;3.05;;;1.00;;
23140;SDS011;11739;54.750;9.124;2022-07-06T09:51:56;5.05;;;1.40;;
23140;SDS011;11739;54.750;9.124;2022-07-06T09:57:55;5.30;;;1.13;;
23140;SDS011;11739;54.750;9.124;2022-07-06T10:00:28;2.63;;;0.90;;
23140;SDS011;11739;54.750;9.124;2022-07-06T10:02:57;4.10;;;1.30;;
23140;SDS011;11739;54.750;9.124;2022-07-06T10:05:28;4.88;;;1.33;;
23140;SDS011;11739;54.750;9.124;2022-07-06T10:07:58;4.35;;;1.27;;
23140;SDS011;11739;54.750;9.124;2022-07-06T10:10:28;5.10;;;1.10;;
23140;SDS011;11739;54.750;9.124;2022-07-06T10:12:56;4.50;;;1.08;;
23140;SDS011;11739;54.750;9.124;2022-07-06T10:15:27;3.72;;;1.25;;
23140;SDS011;11739;54.750;9.124;2022-07-06T10:17:54;4.55;;;1.25;;
23140;SDS011;11739;54.750;9.124;2022-07-06T10:20:22;4.53;;;1.20;;
23140;SDS011;11739;54.750;9.124;2022-07-06T10:22:49;2.75;;;0.95;;
23140;SDS011;11739;54.750;9.124;2022-07-06T10:25:16;2.05;;;0.95;;
23140;SDS011;11739;54.750;9.124;2022-07-06T10:27:45;3.35;;;1.00;;
23140;SDS011;11739;54.750;9.124;2022-07-06T10:30:13;2.63;;;1.10;;
23140;SDS011;11739;54.750;9.124;2022-07-06T10:32:41;1.70;;;0.70;;
23140;SDS011;11739;54.750;9.124;2022-07-06T10:35:08;2.17;;;0.90;;
23140;SDS011;11739;54.750;9.124;2022-07-06T10:37:39;2.67;;;1.00;;
23140;SDS011;11739;54.750;9.124;2022-07-06T10:40:09;4.90;;;1.30;;
23140;SDS011;11739;54.750;9.124;2022-07-06T10:42:59;4.43;;;1.27;;
23140;SDS011;11739;54.750;9.124;2022-07-06T10:50:38;3.40;;;1.38;;
23140;SDS011;11739;54.750;9.124;2022-07-06T10:53:15;4.70;;;1.45;;
23140;SDS011;11739;54.750;9.124;2022-07-06T10:55:44;3.72;;;1.17;;
23140;SDS011;11739;54.750;9.124;2022-07-06T11:01:18;4.57;;;1.10;;
23140;SDS011;11739;54.750;9.124;2022-07-06T11:06:16;2.25;;;0.90;;
23140;SDS011;11739;54.750;9.124;2022-07-06T11:13:59;3.55;;;1.23;;
23140;SDS011;11739;54.750;9.124;2022-07-06T11:16:33;2.10;;;1.00;;
23140;SDS011;11739;54.750;9.124;2022-07-06T11:19:12;5.05;;;0.95;;
23140;SDS011;11739;54.750;9.124;2022-07-06T11:21:40;2.15;;;0.98;;
23140;SDS011;11739;54.750;9.124;2022-07-06T11:24:10;2.40;;;0.90;;
23140;SDS011;11739;54.750;9.124;2022-07-06T11:26:39;2.42;;;0.73;;
23140;SDS011;11739;54.750;9.124;2022-07-06T11:29:07;4.70;;;0.80;;
23140;SDS011;11739;54.750;9.124;2022-07-06T11:31:35;4.20;;;1.02;;
23140;SDS011;11739;54.750;9.124;2022-07-06T11:34:04;4.65;;;1.27;;
23140;SDS011;11739;54.750;9.124;2022-07-06T11:36:31;1.65;;;0.73;;
23140;SDS011;11739;54.750;9.124;2022-07-06T11:39:04;1.83;;;0.90;;
23140;SDS011;11739;54.750;9.124;2022-07-06T11:41:34;4.00;;;1.08;;
23140;SDS011;11739;54.750;9.124;2022-07-06T11:44:01;2.95;;;0.68;;
23140;SDS011;11739;54.750;9.124;2022-07-06T11:46:28;0.77;;;0.47;;
23140;SDS011;11739;54.750;9.124;2022-07-06T11:48:56;1.58;;;0.57;;
23140;SDS011;11739;54.750;9.124;2022-07-06T11:51:24;2.30;;;0.82;;
23140;SDS011;11739;54.750;9.124;2022-07-06T11:53:53;2.25;;;0.60;;
23140;SDS011;11739;54.750;9.124;2022-07-06T11:56:22;1.95;;;0.70;;
23140;SDS011;11739;54.750;9.124;2022-07-06T11:58:57;1.08;;;0.60;;
23140;SDS011;11739;54.750;9.124;2022-07-06T12:01:25;1.25;;;0.60;;
23140;SDS011;11739;54.750;9.124;2022-07-06T12:03:56;2.83;;;0.60;;
23140;SDS011;11739;54.750;9.124;2022-07-06T12:06:27;4.15;;;0.88;;
23140;SDS011;11739;54.750;9.124;2022-07-06T12:08:55;0.93;;;0.50;;
23140;SDS011;11739;54.750;9.124;2022-07-06T12:11:26;2.75;;;0.60;;
23140;SDS011;11739;54.750;9.124;2022-07-06T12:13:55;2.40;;;0.57;;
23140;SDS011;11739;54.750;9.124;2022-07-06T12:16:28;3.42;;;0.90;;
23140;SDS011;11739;54.750;9.124;2022-07-06T12:19:01;1.48;;;0.77;;
23140;SDS011;11739;54.750;9.124;2022-07-06T12:21:33;4.10;;;0.60;;
23140;SDS011;11739;54.750;9.124;2022-07-06T12:24:00;1.85;;;0.68;;
23140;SDS011;11739;54.750;9.124;2022-07-06T12:26:28;1.75;;;0.50;;
23140;SDS011;11739;54.750;9.124;2022-07-06T12:29:06;4.03;;;1.00;;
23140;SDS011;11739;54.750;9.124;2022-07-06T12:31:49;1.83;;;0.63;;
23140;SDS011;11739;54.750;9.124;2022-07-06T12:34:17;1.80;;;0.60;;
23140;SDS011;11739;54.750;9.124;2022-07-06T12:37:27;2.25;;;0.70;;
23140;SDS011;11739;54.750;9.124;2022-07-06T12:39:45;2.40;;;0.63;;
23140;SDS011;11739;54.750;9.124;2022-07-06T12:42:16;3.63;;;0.70;;
23140;SDS011;11739;54.750;9.124;2022-07-06T12:44:50;1.13;;;0.70;;
23140;SDS011;11739;54.750;9.124;2022-07-06T12:47:21;2.33;;;0.70;;
23140;SDS011;11739;54.750;9.124;2022-07-06T12:50:07;3.58;;;0.80;;
23140;SDS011;11739;54.750;9.124;2022-07-06T12:52:34;1.67;;;0.57;;
23140;SDS011;11739;54.750;9.124;2022-07-06T12:55:02;1.90;;;0.50;;
23140;SDS011;11739;54.750;9.124;2022-07-06T12:57:43;1.58;;;0.88;;
23140;SDS011;11739;54.750;9.124;2022-07-06T13:00:14;3.08;;;0.65;;
23140;SDS011;11739;54.750;9.124;2022-07-06T13:02:43;1.88;;;0.77;;
23140;SDS011;11739;54.750;9.124;2022-07-06T13:05:31;1.83;;;0.70;;
23140;SDS011;11739;54.750;9.124;2022-07-06T13:07:58;2.80;;;0.90;;
23140;SDS011;11739;54.750;9.124;2022-07-06T13:10:25;2.70;;;0.82;;
23140;SDS011;11739;54.750;9.124;2022-07-06T13:12:51;2.65;;;0.70;;
23140;SDS011;11739;54.750;9.124;2022-07-06T13:15:18;1.35;;;0.60;;
23140;SDS011;11739;54.750;9.124;2022-07-06T13:17:44;2.20;;;0.60;;
23140;SDS011;11739;54.750;9.124;2022-07-06T13:20:12;2.65;;;0.70;;
23140;SDS011;11739;54.750;9.124;2022-07-06T13:22:40;2.78;;;0.80;;
23140;SDS011;11739;54.750;9.124;2022-07-06T13:25:06;1.38;;;0.47;;
23140;SDS011;11739;54.750;9.124;2022-07-06T13:27:33;2.33;;;0.70;;
23140;SDS011;11739;54.750;9.124;2022-07-06T13:30:00;3.60;;;0.75;;
23140;SDS011;11739;54.750;9.124;2022-07-06T13:32:26;1.52;;;0.75;;
23140;SDS011;11739;54.750;9.124;2022-07-06T13:34:53;2.92;;;0.80;;
23140;SDS011;11739;54.750;9.124;2022-07-06T13:37:20;2.17;;;0.80;;
23140;SDS011;11739;54.750;9.124;2022-07-06T13:39:47;2.05;;;0.52;;
23140;SDS011;11739;54.750;9.124;2022-07-06T13:42:13;2.10;;;0.90;;
23140;SDS011;11739;54.750;9.124;2022-07-06T13:44:40;2.10;;;0.70;;
23140;SDS011;11739;54.750;9.124;2022-07-06T13:47:06;1.55;;;0.70;;
23140;SDS011;11739;54.750;9.124;2022-07-06T13:49:33;2.22;;;0.80;;
23140;SDS011;11739;54.750;9.124;2022-07-06T13:52:00;3.63;;;0.80;;
23140;SDS011;11739;54.750;9.124;2022-07-06T13:54:30;3.55;;;0.90;;
23140;SDS011;11739;54.750;9.124;2022-07-06T13:56:57;2.05;;;0.80;;
23140;SDS011;11739;54.750;9.124;2022-07-06T13:59:24;3.40;;;0.88;;
23140;SDS011;11739;54.750;9.124;2022-07-06T14:01:50;2.50;;;0.85;;
23140;SDS011;11739;54.750;9.124;2022-07-06T14:04:17;2.17;;;0.80;;
23140;SDS011;11739;54.750;9.124;2022-07-06T14:06:43;2.40;;;0.70;;
23140;SDS011;11739;54.750;9.124;2022-07-06T14:09:10;1.95;;;0.70;;
23140;SDS011;11739;54.750;9.124;2022-07-06T14:11:36;3.08;;;0.80;;
23140;SDS011;11739;54.750;9.124;2022-07-06T14:14:03;2.47;;;0.68;;
23140;SDS011;11739;54.750;9.124;2022-07-06T14:16:33;1.38;;;0.60;;
23140;SDS011;11739;54.750;9.124;2022-07-06T14:19:01;2.58;;;0.88;;
23140;SDS011;11739;54.750;9.124;2022-07-06T14:21:27;2.35;;;0.73;;
23140;SDS011;11739;54.750;9.124;2022-07-06T14:23:54;2.95;;;0.70;;
23140;SDS011;11739;54.750;9.124;2022-07-06T14:26:21;2.75;;;0.45;;
23140;SDS011;11739;54.750;9.124;2022-07-06T14:28:47;2.58;;;0.80;;
23140;SDS011;11739;54.750;9.124;2022-07-06T14:31:14;2.33;;;0.88;;
23140;SDS011;11739;54.750;9.124;2022-07-06T14:33:46;2.22;;;0.95;;
23140;SDS011;11739;54.750;9.124;2022-07-06T14:36:13;2.25;;;0.80;;
23140;SDS011;11739;54.750;9.124;2022-07-06T14:38:39;3.47;;;1.10;;
23140;SDS011;11739;54.750;9.124;2022-07-06T14:41:06;2.92;;;0.90;;
23140;SDS011;11739;54.750;9.124;2022-07-06T14:43:32;2.42;;;1.27;;
23140;SDS011;11739;54.750;9.124;2022-07-06T14:45:59;2.42;;;1.20;;
23140;SDS011;11739;54.750;9.124;2022-07-06T14:48:26;2.35;;;1.05;;
23140;SDS011;11739;54.750;9.124;2022-07-06T14:50:52;2.95;;;1.02;;
23140;SDS011;11739;54.750;9.124;2022-07-06T14:53:19;4.68;;;0.90;;
23140;SDS011;11739;54.750;9.124;2022-07-06T14:55:46;2.13;;;1.02;;
23140;SDS011;11739;54.750;9.124;2022-07-06T14:58:14;3.92;;;1.13;;
23140;SDS011;11739;54.750;9.124;2022-07-06T15:00:44;3.25;;;1.10;;
23140;SDS011;11739;54.750;9.124;2022-07-06T15:03:11;6.90;;;1.40;;
23140;SDS011;11739;54.750;9.124;2022-07-06T15:05:38;3.20;;;1.35;;
23140;SDS011;11739;54.750;9.124;2022-07-06T15:08:05;6.75;;;1.42;;
23140;SDS011;11739;54.750;9.124;2022-07-06T15:10:32;5.43;;;1.33;;
23140;SDS011;11739;54.750;9.124;2022-07-06T15:12:58;4.35;;;1.00;;
23140;SDS011;11739;54.750;9.124;2022-07-06T15:15:25;1.30;;;1.10;;
23140;SDS011;11739;54.750;9.124;2022-07-06T15:18:11;4.60;;;1.40;;